Time;durP1;ratioP1;P1;durP2;ratioP2;P2;SDS_P1;SDS_P2;PMS_P1;PMS_P2;Temp;Humidity;BMP_temperature;BMP_pressure;BME280_temperature;BME280_humidity;BME280_pressure;Samples;Min_cycle;Max_cycle;Signal;HPM_P1;HPM_P2
2022/02/05 00:02:40;;;;;;;32.45;12.73;;;;;;;-10.75;96.99;99552.53;5089054;28;20467;-60
2022/02/05 00:05:07;;;;;;;36.00;13.25;;;;;;;-10.72;97.61;99557.72;5055526;28;20175;-59
2022/02/05 00:07:37;;;;;;;34.70;12.57;;;;;;;-10.64;97.74;99562.81;5055758;28;20048;-61
2022/02/05 00:40:43;;;;;;;25.98;8.80;;;;;;;-10.80;97.76;99551.75;5058109;28;19920;-60
2022/02/05 00:43:03;;;;;;;34.13;11.20;;;;;;;-10.85;98.07;99538.75;5088891;28;20105;-60
2022/02/05 00:45:33;;;;;;;23.00;9.50;;;;;;;-10.81;98.55;99544.81;5038303;28;20044;-60
2022/02/05 00:48:01;;;;;;;28.20;12.48;;;;;;;-10.91;98.92;99523.19;5072722;28;20047;-62
2022/02/05 00:50:29;;;;;;;33.55;11.18;;;;;;;-10.87;98.03;99537.03;5088579;28;20056;-60
2022/02/05 00:52:59;;;;;;;31.73;11.02;;;;;;;-11.07;95.91;99506.00;5055664;28;20050;-62
2022/02/05 00:55:29;;;;;;;30.70;12.20;;;;;;;-10.89;96.64;99555.34;5088568;28;20590;-61
2022/02/05 00:57:59;;;;;;;28.02;11.07;;;;;;;-10.95;96.41;99545.84;5072756;28;20053;-61
2022/02/05 01:00:25;;;;;;;33.55;11.50;;;;;;;-11.00;96.55;99539.84;5089003;28;20056;-61
2022/02/05 01:02:51;;;;;;;32.15;11.13;;;;;;;-11.01;95.63;99545.06;5089014;28;20043;-59
2022/02/05 01:05:17;;;;;;;29.80;10.52;;;;;;;-11.12;95.33;99537.38;5056009;28;20044;-60
2022/02/05 01:07:43;;;;;;;23.83;10.80;;;;;;;-11.04;96.27;99543.38;5056455;28;20079;-58
2022/02/05 01:10:09;;;;;;;29.17;11.50;;;;;;;-11.12;96.04;99534.75;5039795;28;20125;-58
2022/02/05 01:12:38;;;;;;;27.83;12.02;;;;;;;-11.30;93.13;99529.78;5072668;28;20044;-58
2022/02/05 01:15:05;;;;;;;33.45;12.63;;;;;;;-11.35;92.75;99557.66;5055244;28;20048;-60
2022/02/05 01:17:48;;;;;;;36.13;12.85;;;;;;;-11.50;92.52;99543.94;5039223;28;20143;-58
2022/02/05 01:23:12;;;;;;;40.40;17.90;;;;;;;-11.67;93.37;99535.41;5066700;28;20446;-59
2022/02/05 01:25:44;;;;;;;44.33;17.60;;;;;;;-11.70;93.59;99530.22;5076063;28;20507;-57
2022/02/05 01:28:18;;;;;;;50.28;19.13;;;;;;;-11.74;93.31;99534.63;5076242;28;20036;-57
2022/02/05 01:30:49;;;;;;;50.55;18.98;;;;;;;-11.83;92.50;99523.47;5044200;28;20052;-59
2022/02/05 01:49:57;;;;;;;39.63;15.90;;;;;;;-12.00;93.81;99536.66;5093947;28;20075;-60
2022/02/05 01:57:21;;;;;;;38.17;14.70;;;;;;;-11.82;92.90;99527.75;5059093;28;20044;-60
2022/02/05 02:05:03;;;;;;;32.15;12.05;;;;;;;-11.42;92.94;99521.22;5092898;28;20495;-60
2022/02/05 02:15:35;;;;;;;31.20;10.27;;;;;;;-11.07;91.60;99522.53;5058468;28;20415;-61
2022/02/05 02:21:05;;;;;;;31.45;11.85;;;;;;;-10.93;91.64;99484.06;5059044;28;20063;-62
2022/02/05 02:26:32;;;;;;;31.15;9.65;;;;;;;-10.72;90.86;99482.00;5091885;28;20048;-58
2022/02/05 02:29:07;;;;;;;24.30;9.82;;;;;;;-10.57;91.18;99481.75;5047475;28;20100;-60
2022/02/05 02:31:38;;;;;;;27.25;12.10;;;;;;;-10.56;90.80;99504.38;5091196;28;20048;-61
2022/02/05 02:34:08;;;;;;;35.40;13.18;;;;;;;-10.53;90.12;99508.69;5091393;28;20135;-62
2022/02/05 02:36:55;;;;;;;27.55;10.85;;;;;;;-10.66;89.81;99484.53;5041109;28;20105;-62
2022/02/05 02:39:29;;;;;;;30.95;12.43;;;;;;;-10.47;89.92;99514.69;5077475;28;20247;-61
2022/02/05 02:42:01;;;;;;;34.40;15.27;;;;;;;-10.38;91.04;99518.03;5076042;28;20047;-61
2022/02/05 02:44:27;;;;;;;43.38;17.85;;;;;;;-10.30;93.06;99524.00;5075052;28;20424;-61
2022/02/05 02:46:53;;;;;;;40.47;17.00;;;;;;;-10.26;93.21;99523.94;5041005;28;20039;-61
2022/02/05 02:57:30;;;;;;;43.25;17.50;;;;;;;-10.04;93.19;99502.63;5073820;28;20519;-59
2022/02/05 03:00:01;;;;;;;48.47;19.17;;;;;;;-10.11;92.76;99491.41;5057362;28;20039;-61
2022/02/05 03:02:27;;;;;;;50.80;17.38;;;;;;;-10.09;92.90;99507.03;5090981;28;20076;-61
2022/02/05 03:04:54;;;;;;;49.83;19.95;;;;;;;-10.23;93.11;99475.94;5057151;28;20051;-61
2022/02/05 03:07:25;;;;;;;49.00;20.55;;;;;;;-10.04;93.03;99508.72;5057011;28;20043;-62
2022/02/05 03:09:53;;;;;;;70.57;27.33;;;;;;;-10.04;93.35;99506.09;5023721;28;20419;-59
2022/02/05 03:12:19;;;;;;;78.05;28.35;;;;;;;-10.07;93.87;99507.91;5057510;28;20048;-60
2022/02/05 03:14:46;;;;;;;69.82;25.95;;;;;;;-10.18;93.72;99508.09;5074323;28;20097;-61
2022/02/05 03:17:16;;;;;;;66.95;22.73;;;;;;;-10.26;93.13;99502.16;5058866;28;20416;-60
2022/02/05 03:19:44;;;;;;;71.82;26.35;;;;;;;-10.49;93.60;99482.50;5092202;28;20436;-61
2022/02/05 03:22:10;;;;;;;69.97;25.88;;;;;;;-10.45;94.11;99501.59;5057155;28;20039;-62
2022/02/05 03:24:36;;;;;;;60.17;24.38;;;;;;;-10.62;95.09;99467.91;5057615;28;20054;-59
2022/02/05 03:27:02;;;;;;;71.82;24.42;;;;;;;-10.46;94.72;99492.91;5074339;28;20040;-60
2022/02/05 03:29:28;;;;;;;63.72;21.98;;;;;;;-10.55;94.44;99490.44;5039942;28;20040;-61
2022/02/05 03:31:54;;;;;;;61.45;20.45;;;;;;;-10.52;93.97;99495.63;5073557;28;20396;-59
2022/02/05 03:34:20;;;;;;;60.80;22.40;;;;;;;-10.64;93.83;99495.78;5056158;28;20503;-60
2022/02/05 03:36:45;;;;;;;56.65;19.00;;;;;;;-10.60;94.44;99501.81;5073030;28;20059;-60
2022/02/05 03:39:11;;;;;;;55.33;18.63;;;;;;;-10.54;94.31;99505.22;5056116;28;20048;-59
2022/02/05 03:41:37;;;;;;;50.08;18.83;;;;;;;-10.58;93.38;99466.97;5072237;28;20043;-61
2022/02/05 03:44:03;;;;;;;59.35;19.80;;;;;;;-10.42;92.93;99496.31;5040102;28;20484;-60
2022/02/05 03:46:29;;;;;;;45.72;18.13;;;;;;;-10.43;93.28;99493.72;5039959;28;20139;-61
2022/02/05 03:48:56;;;;;;;50.95;18.83;;;;;;;-10.36;93.33;99495.34;5089968;28;20040;-59
2022/02/05 03:51:22;;;;;;;46.85;17.38;;;;;;;-10.32;93.68;99497.03;5056277;28;20158;-60
2022/02/05 03:53:48;;;;;;;51.35;17.50;;;;;;;-10.29;94.36;99486.53;5072921;28;20097;-61
2022/02/05 03:56:13;;;;;;;45.30;17.70;;;;;;;-10.27;94.16;99497.84;5056299;28;20055;-61
2022/02/05 03:58:39;;;;;;;45.25;16.52;;;;;;;-10.34;93.54;99498.81;5039090;28;20040;-60
2022/02/05 04:01:05;;;;;;;43.17;19.95;;;;;;;-10.26;93.45;99497.78;5072863;28;20559;-60
2022/02/05 04:03:31;;;;;;;60.97;20.15;;;;;;;-10.30;93.20;99500.50;5056544;28;20444;-61
2022/02/05 04:05:58;;;;;;;50.10;18.73;;;;;;;-10.21;93.37;99505.50;5072464;28;20138;-60
2022/02/05 04:08:23;;;;;;;48.95;18.10;;;;;;;-10.41;92.32;99491.97;5056414;28;20533;-61
2022/02/05 04:11:01;;;;;;;44.97;17.75;;;;;;;-10.17;92.47;99511.56;5057178;28;20088;-61
2022/02/05 04:16:22;;;;;;;;;;;;;;;-10.28;92.04;99514.38;5059353;28;20050;-61
2022/02/05 04:18:53;;;;;;;66.00;22.65;;;;;;;-10.31;92.17;99514.41;5074553;28;20442;-61
2022/02/05 04:21:20;;;;;;;66.13;25.38;;;;;;;-10.25;92.75;99514.31;5039300;28;20151;-62
2022/02/05 04:23:47;;;;;;;54.92;19.77;;;;;;;-10.21;93.02;99502.91;5055874;28;20043;-62
2022/02/05 04:26:15;;;;;;;53.75;20.20;;;;;;;-10.20;93.18;99486.31;5055713;28;20530;-60
2022/02/05 04:28:41;;;;;;;50.78;19.77;;;;;;;-10.32;92.94;99455.22;5038929;28;20554;-61
2022/02/05 04:31:07;;;;;;;57.08;19.33;;;;;;;-10.18;93.41;99476.72;5072415;28;20130;-61
2022/02/05 04:33:33;;;;;;;44.53;17.70;;;;;;;-9.83;93.48;99499.63;5072204;28;20046;-61
2022/02/05 04:35:58;;;;;;;47.30;17.95;;;;;;;-9.84;93.59;99502.25;5055379;28;20431;-63
2022/02/05 04:38:26;;;;;;;46.47;17.52;;;;;;;-9.78;93.97;99504.75;5055730;28;20557;-61
2022/02/05 04:41:04;;;;;;;57.65;20.92;;;;;;;-10.12;94.60;99457.47;5038992;28;20072;-60
2022/02/05 04:56:50;;;;;;;67.97;23.42;;;;;;;-9.66;96.13;99514.13;5076578;28;20026;-63
2022/02/05 05:02:11;;;;;;;51.30;21.23;;;;;;;-9.56;95.67;99510.44;5059012;28;20491;-62
2022/02/05 05:04:44;;;;;;;53.92;20.95;;;;;;;-9.53;96.51;99511.25;5079726;28;20056;-60
2022/02/05 05:12:27;;;;;;;57.92;21.67;;;;;;;-9.25;96.75;99500.19;5093980;28;20046;-61
2022/02/05 05:20:23;;;;;;;60.50;24.58;;;;;;;-9.11;98.15;99498.16;5062308;28;20043;-62
2022/02/05 05:22:49;;;;;;;63.38;21.95;;;;;;;-9.04;97.75;99505.00;5060183;28;20182;-61
2022/02/05 05:25:16;;;;;;;58.42;21.20;;;;;;;-8.99;97.34;99513.63;5042736;28;20048;-62
2022/02/05 05:27:43;;;;;;;62.00;21.55;;;;;;;-8.91;96.91;99502.13;5042309;28;20197;-63
2022/02/05 05:30:09;;;;;;;61.92;19.77;;;;;;;-8.89;97.05;99503.78;5042254;28;20044;-62
2022/02/05 05:32:35;;;;;;;58.83;22.02;;;;;;;-8.86;96.38;99497.63;5058486;28;20068;-61
2022/02/05 05:35:01;;;;;;;62.92;22.58;;;;;;;-8.79;96.00;99494.84;5042063;28;20405;-61
2022/02/05 05:37:27;;;;;;;69.65;23.55;;;;;;;-8.72;96.43;99500.81;5042254;28;20044;-61
2022/02/05 05:39:53;;;;;;;60.15;22.67;;;;;;;-8.66;96.36;99512.91;5041858;28;20040;-62
2022/02/05 05:42:33;;;;;;;65.18;23.17;;;;;;;-8.70;96.60;99493.78;5042168;28;20537;-61
2022/02/05 05:48:10;;;;;;;68.70;25.23;;;;;;;-8.73;96.60;99493.84;5025256;28;20036;-61
2022/02/05 05:53:09;;;;;;;68.43;24.52;;;;;;;-8.86;95.73;99495.00;5092201;28;20047;-62
2022/02/05 05:55:35;;;;;;;71.30;25.42;;;;;;;-8.79;95.79;99480.88;5059075;28;20097;-59
2022/02/05 05:58:01;;;;;;;68.38;24.23;;;;;;;-8.80;94.95;99487.88;5041771;28;20040;-63
2022/02/05 06:00:27;;;;;;;66.07;23.20;;;;;;;-8.89;95.07;99479.38;5058283;28;20063;-63
2022/02/05 06:02:53;;;;;;;69.90;24.10;;;;;;;-8.96;95.04;99460.31;5091540;28;20400;-59
2022/02/05 06:05:19;;;;;;;70.95;26.40;;;;;;;-8.72;94.54;99479.84;5024612;28;20040;-62
2022/02/05 06:07:45;;;;;;;69.15;26.88;;;;;;;-8.74;94.27;99476.38;5058748;28;20083;-60
2022/02/05 06:10:11;;;;;;;90.18;31.48;;;;;;;-8.76;94.27;99480.81;5042744;28;20419;-61
2022/02/05 06:12:37;;;;;;;73.13;27.73;;;;;;;-8.76;94.64;99484.28;5058566;28;20052;-65
2022/02/05 06:15:07;;;;;;;73.22;26.48;;;;;;;-8.69;94.19;99477.16;5075391;28;20067;-64
2022/02/05 06:17:33;;;;;;;73.18;25.30;;;;;;;-8.77;94.10;99456.38;5059141;28;20036;-60
2022/02/05 06:19:59;;;;;;;78.30;25.83;;;;;;;-8.65;94.49;99476.19;5058447;28;20048;-60
2022/02/05 06:22:25;;;;;;;78.45;26.42;;;;;;;-8.67;94.77;99472.72;5075046;28;20487;-62
2022/02/05 06:24:51;;;;;;;75.95;26.85;;;;;;;-8.56;94.83;99475.09;5041713;28;20198;-60
2022/02/05 06:27:17;;;;;;;73.40;25.58;;;;;;;-8.53;94.41;99469.78;5058296;28;20552;-60
2022/02/05 06:29:43;;;;;;;75.88;26.10;;;;;;;-8.58;94.39;99462.03;5041402;28;20051;-63
2022/02/05 06:32:09;;;;;;;83.55;27.27;;;;;;;-8.49;94.79;99455.72;5041616;28;20071;-60
2022/02/05 06:34:35;;;;;;;68.72;26.73;;;;;;;-8.60;94.62;99442.88;5041303;28;20040;-61
2022/02/05 06:37:01;;;;;;;76.15;27.23;;;;;;;-8.40;94.70;99457.25;5074473;28;20086;-60
2022/02/05 06:39:27;;;;;;;72.25;26.13;;;;;;;-8.35;94.26;99465.81;5041243;28;20092;-61
2022/02/05 06:41:52;;;;;;;76.40;27.05;;;;;;;-8.40;93.44;99460.75;5041673;28;20040;-62
2022/02/05 06:44:18;;;;;;;67.43;25.27;;;;;;;-8.50;93.66;99465.34;5041309;28;20419;-63
2022/02/05 06:46:44;;;;;;;79.50;29.40;;;;;;;-8.59;92.97;99438.47;5040898;28;20499;-60
2022/02/05 06:49:10;;;;;;;71.32;23.95;;;;;;;-8.36;94.12;99464.97;5040827;28;20040;-60
2022/02/05 06:51:36;;;;;;;64.45;23.70;;;;;;;-8.16;93.94;99467.06;5090705;28;20044;-60
2022/02/05 06:54:02;;;;;;;64.10;24.55;;;;;;;-8.04;93.07;99469.41;5040914;28;20085;-61
2022/02/05 06:56:28;;;;;;;63.95;24.95;;;;;;;-8.03;91.71;99459.75;5057738;28;20094;-62
2022/02/05 06:58:54;;;;;;;71.47;26.63;;;;;;;-7.92;92.04;99464.72;5041463;28;20563;-61
2022/02/05 07:01:20;;;;;;;62.83;23.48;;;;;;;-7.85;91.53;99458.41;5092045;28;20128;-62
2022/02/05 07:03:46;;;;;;;64.30;24.30;;;;;;;-7.80;91.39;99456.50;5090551;28;20101;-61
2022/02/05 07:06:12;;;;;;;64.72;23.70;;;;;;;-7.61;90.82;99456.84;5040692;28;20066;-64
2022/02/05 07:08:40;;;;;;;64.00;22.88;;;;;;;-7.41;91.27;99458.94;5040782;28;20134;-60
2022/02/05 07:11:06;;;;;;;67.10;23.67;;;;;;;-7.25;90.12;99446.22;5040960;28;20040;-63
2022/02/05 07:13:32;;;;;;;73.80;24.13;;;;;;;-7.21;88.66;99446.06;5040992;28;20070;-63
2022/02/05 07:16:08;;;;;;;64.80;23.92;;;;;;;-7.11;87.99;99460.66;5037854;28;20108;-62
2022/02/05 07:18:45;;;;;;;62.40;23.90;;;;;;;-7.00;88.13;99446.34;5068836;28;20044;-65
2022/02/05 07:21:16;;;;;;;69.00;25.95;;;;;;;-7.04;88.25;99454.31;5038876;28;20151;-65
2022/02/05 07:24:10;;;;;;;51.15;18.02;;;;;;;-6.98;87.39;99441.88;5057519;28;20456;-64
2022/02/05 07:29:20;;;;;;;61.63;21.92;;;;;;;-7.03;86.53;99411.38;5042978;28;20096;-64
2022/02/05 07:31:48;;;;;;;71.00;24.35;;;;;;;-6.86;86.45;99446.78;5051849;28;20417;-65
2022/02/05 07:34:16;;;;;;;70.78;24.83;;;;;;;-6.73;86.04;99442.84;5055462;28;20508;-66
2022/02/05 07:36:42;;;;;;;67.60;24.00;;;;;;;-6.94;86.16;99433.03;5037760;28;20142;-69
2022/02/05 07:39:09;;;;;;;68.20;22.42;;;;;;;-6.93;85.68;99437.38;5032040;28;20041;-68
2022/02/05 07:41:37;;;;;;;68.55;23.75;;;;;;;-6.76;85.68;99442.97;5035335;28;20059;-68
2022/02/05 07:44:04;;;;;;;65.97;25.83;;;;;;;-6.69;85.60;99431.34;5051155;28;20054;-67
2022/02/05 07:46:30;;;;;;;71.15;22.17;;;;;;;-6.72;86.46;99443.72;5051849;28;20443;-66
2022/02/05 07:48:56;;;;;;;73.95;25.70;;;;;;;-6.53;85.31;99446.63;5032017;28;20045;-67
2022/02/05 07:51:23;;;;;;;58.80;19.33;;;;;;;-6.64;85.66;99444.34;5023080;28;20518;-70
2022/02/05 07:53:49;;;;;;;72.30;24.50;;;;;;;-6.70;86.68;99447.16;5030711;28;20131;-66
2022/02/05 07:56:15;;;;;;;66.45;25.05;;;;;;;-6.59;85.92;99461.66;5045344;28;20039;-68
2022/02/05 07:58:41;;;;;;;68.35;26.27;;;;;;;-6.59;86.11;99448.53;5038477;28;20154;-68
2022/02/05 08:01:07;;;;;;;79.47;27.33;;;;;;;-6.44;85.11;99443.69;5029142;28;20036;-67
2022/02/05 08:03:33;;;;;;;50.03;20.73;;;;;;;-6.52;84.92;99445.69;5069984;28;20040;-69
2022/02/05 08:06:00;;;;;;;73.88;26.50;;;;;;;-6.70;85.09;99400.69;5027211;28;20373;-65
2022/02/05 08:08:30;;;;;;;72.15;23.65;;;;;;;-6.26;84.35;99440.44;5058548;28;20040;-64
2022/02/05 08:11:05;;;;;;;72.10;26.45;;;;;;;-6.35;83.95;99438.97;5035884;28;20044;-65
2022/02/05 08:13:33;;;;;;;68.05;23.52;;;;;;;-6.41;84.02;99433.06;5035912;28;20497;-65
2022/02/05 08:16:23;;;;;;;75.75;26.52;;;;;;;-6.46;83.96;99425.34;5057460;28;20041;-63
2022/02/05 08:18:45;;;;;;;54.83;21.02;;;;;;;-6.41;84.32;99423.41;5047550;28;20040;-64
2022/02/05 08:21:11;;;;;;;66.35;24.15;;;;;;;-6.29;83.02;99419.50;5055356;28;20052;-64
2022/02/05 08:23:37;;;;;;;69.07;23.67;;;;;;;-6.15;84.04;99419.88;5071217;28;20456;-65
2022/02/05 08:26:04;;;;;;;64.97;23.05;;;;;;;-6.01;82.83;99416.78;5053397;28;20503;-65
2022/02/05 08:28:31;;;;;;;67.20;22.48;;;;;;;-5.88;81.55;99417.19;5035677;28;20396;-65
2022/02/05 08:30:58;;;;;;;76.38;24.67;;;;;;;-5.90;82.83;99424.28;5034905;28;20454;-67
2022/02/05 08:33:24;;;;;;;68.35;25.25;;;;;;;-5.85;82.25;99414.41;5056172;28;20076;-64
2022/02/05 08:35:50;;;;;;;66.80;22.92;;;;;;;-5.83;81.09;99409.97;5033024;28;20468;-64
2022/02/05 08:38:18;;;;;;;71.78;24.60;;;;;;;-5.64;81.74;99418.91;5024302;28;20059;-64
2022/02/05 08:40:44;;;;;;;74.57;25.58;;;;;;;-5.67;81.85;99419.03;5042626;28;20089;-64
2022/02/05 08:43:10;;;;;;;66.35;25.88;;;;;;;-6.03;82.29;99412.47;5083462;28;20188;-64
2022/02/05 08:45:37;;;;;;;61.80;24.23;;;;;;;-6.00;82.62;99412.38;5053986;28;20044;-64
2022/02/05 08:48:03;;;;;;;64.82;24.55;;;;;;;-6.23;82.51;99419.28;5038675;28;20132;-64
2022/02/05 08:50:29;;;;;;;74.80;24.92;;;;;;;-6.01;82.56;99405.41;5046602;28;20040;-64
2022/02/05 08:52:55;;;;;;;71.97;25.15;;;;;;;-5.95;82.03;99415.72;5055659;28;20051;-64
2022/02/05 08:55:22;;;;;;;70.07;25.77;;;;;;;-5.73;82.13;99406.09;5037041;28;20044;-64
2022/02/05 08:57:50;;;;;;;67.88;24.88;;;;;;;-5.62;80.97;99403.94;5078901;28;20066;-64
2022/02/05 09:00:23;;;;;;;55.85;18.15;;;;;;;-5.48;80.96;99415.75;5069734;28;20420;-64
2022/02/05 09:02:58;;;;;;;64.95;20.75;;;;;;;-5.23;79.17;99400.75;5034587;28;20463;-64
2022/02/05 09:07:53;;;;;;;62.80;23.13;;;;;;;-4.51;76.23;99391.72;5038195;28;20064;-64
2022/02/05 09:10:49;;;;;;;65.00;22.42;;;;;;;-3.93;74.97;99394.53;5039435;28;20232;-64
2022/02/05 09:13:37;;;;;;;60.35;20.85;;;;;;;-2.75;69.83;99379.38;5037116;28;20045;-64
2022/02/05 09:16:04;;;;;;;53.25;19.90;;;;;;;-1.84;65.06;99378.31;5037936;28;20040;-65
2022/02/05 09:18:30;;;;;;;54.15;20.92;;;;;;;-0.83;62.26;99369.31;5086406;28;20392;-64
2022/02/05 09:20:56;;;;;;;53.63;21.90;;;;;;;0.09;57.67;99371.94;5053595;28;20044;-64
2022/02/05 09:23:22;;;;;;;60.67;22.85;;;;;;;1.78;54.24;99356.72;5084880;28;20048;-64
2022/02/05 09:25:48;;;;;;;53.78;22.08;;;;;;;3.80;47.98;99358.31;5061103;28;20052;-65
2022/02/05 09:28:15;;;;;;;52.25;22.17;;;;;;;4.50;44.27;99350.25;5015995;28;20052;-64
2022/02/05 09:30:49;;;;;;;54.40;20.05;;;;;;;5.92;41.90;99336.94;5050043;28;20155;-65
2022/02/05 09:33:15;;;;;;;51.15;21.85;;;;;;;6.62;39.17;99335.41;5051524;28;20044;-65
2022/02/05 09:35:41;;;;;;;46.15;20.73;;;;;;;7.97;35.92;99337.56;5036087;28;20147;-65
2022/02/05 09:38:07;;;;;;;48.15;21.75;;;;;;;7.84;36.99;99329.78;5034430;28;20052;-65
2022/02/05 09:40:33;;;;;;;45.90;20.98;;;;;;;7.97;36.06;99324.97;5057097;28;20048;-65
2022/02/05 09:42:59;;;;;;;43.40;20.23;;;;;;;7.07;36.01;99303.66;5086387;28;20138;-65
2022/02/05 09:45:25;;;;;;;37.53;18.50;;;;;;;8.08;33.79;99312.34;5056474;28;20052;-65
2022/02/05 09:47:51;;;;;;;40.13;19.90;;;;;;;7.95;34.54;99310.81;5057108;28;20045;-65
2022/02/05 09:50:20;;;;;;;42.40;19.95;;;;;;;9.13;31.65;99304.91;5045654;28;20041;-67
2022/02/05 09:52:51;;;;;;;39.63;20.58;;;;;;;8.73;31.73;99310.63;5055229;28;20114;-67
2022/02/05 09:55:17;;;;;;;42.83;21.00;;;;;;;7.57;32.98;99310.78;5054825;28;20488;-66
2022/02/05 09:57:43;;;;;;;46.90;24.27;;;;;;;5.46;36.59;99303.25;5022934;28;20040;-69
2022/02/05 10:00:15;;;;;;;42.60;21.90;;;;;;;6.16;37.29;99291.09;5059160;28;20055;-67
2022/02/05 10:02:44;;;;;;;38.92;20.30;;;;;;;5.68;35.87;99303.16;5071193;28;20211;-67
2022/02/05 10:05:17;;;;;;;49.75;21.15;;;;;;;6.66;35.14;99307.34;5052855;28;20052;-67
2022/02/05 10:08:03;;;;;;;40.75;18.55;;;;;;;8.03;33.25;99303.84;5054240;28;20135;-67
2022/02/05 10:10:43;;;;;;;46.42;20.00;;;;;;;8.62;32.97;99297.34;5055205;28;20511;-67
2022/02/05 10:13:11;;;;;;;42.30;20.52;;;;;;;8.92;32.34;99294.41;4814714;28;20063;-65
2022/02/05 10:15:39;;;;;;;45.72;21.92;;;;;;;7.36;33.44;99286.72;4267830;32;20453;-67
2022/02/05 10:18:07;;;;;;;50.42;24.40;;;;;;;8.06;33.24;99290.94;4275854;32;20560;-67
2022/02/05 10:20:33;;;;;;;48.85;25.98;;;;;;;6.84;33.98;99275.28;4262984;32;20137;-67
2022/02/05 10:23:09;;;;;;;51.33;25.88;;;;;;;7.64;33.05;99277.81;4290063;32;20065;-66
2022/02/05 10:25:35;;;;;;;49.33;26.90;;;;;;;5.61;36.25;99276.97;4260650;28;20058;-67
2022/02/05 10:28:01;;;;;;;48.33;23.50;;;;;;;7.45;34.41;99259.81;4279666;32;20062;-66
2022/02/05 10:30:30;;;;;;;44.17;21.83;;;;;;;6.72;33.96;99250.34;4284793;32;20484;-67
2022/02/05 10:33:04;;;;;;;43.55;21.65;;;;;;;6.81;34.79;99265.69;4293999;28;20050;-66
2022/02/05 10:35:42;;;;;;;41.45;20.42;;;;;;;5.77;35.57;99247.88;4280975;32;20441;-67
2022/02/05 10:43:08;;;;;;;35.38;17.45;;;;;;;5.68;35.39;99257.56;4267423;32;20049;-66
2022/02/05 10:45:48;;;;;;;33.53;16.83;;;;;;;4.70;36.46;99248.75;4839550;28;20050;-66
2022/02/05 10:48:19;;;;;;;31.67;16.15;;;;;;;4.38;36.69;99246.81;4995123;28;20141;-67
2022/02/05 10:50:47;;;;;;;30.65;15.02;;;;;;;4.06;37.12;99236.00;4994590;28;20053;-66
2022/02/05 10:53:30;;;;;;;29.65;16.30;;;;;;;4.03;37.72;99242.44;4993050;28;20057;-66
2022/02/05 10:56:05;;;;;;;29.58;15.95;;;;;;;3.79;38.30;99217.59;4994737;28;20045;-66
2022/02/05 11:07:14;;;;;;;28.23;12.90;;;;;;;6.11;34.48;99210.16;4980559;28;20121;-66
2022/02/05 11:09:44;;;;;;;29.23;14.73;;;;;;;6.49;34.08;99206.75;4995622;28;20042;-66
2022/02/05 11:20:20;;;;;;;29.95;15.55;;;;;;;6.47;33.41;99188.13;4993749;28;20050;-66
2022/02/05 11:22:59;;;;;;;32.22;15.77;;;;;;;5.84;34.76;99152.50;4977858;28;20050;-66
2022/02/05 11:25:30;;;;;;;32.25;14.55;;;;;;;7.21;32.77;99186.81;4993958;28;20493;-67
2022/02/05 11:27:56;;;;;;;31.27;14.82;;;;;;;7.96;31.89;99183.28;4994381;28;20049;-66
2022/02/05 11:30:31;;;;;;;30.75;16.27;;;;;;;7.21;31.56;99165.31;4993957;28;20107;-66
2022/02/05 11:33:02;;;;;;;33.33;15.82;;;;;;;7.51;32.12;99172.34;4977436;28;20096;-67
2022/02/05 11:38:33;;;;;;;37.70;18.50;;;;;;;6.71;33.34;99173.47;4993776;28;20089;-66
2022/02/05 11:41:00;;;;;;;39.42;20.65;;;;;;;5.77;34.72;99175.47;4975141;28;20132;-66
2022/02/05 11:43:27;;;;;;;42.25;19.77;;;;;;;5.74;35.30;99159.63;5009853;28;20053;-66
2022/02/05 11:46:14;;;;;;;38.13;19.80;;;;;;;5.84;35.85;99162.38;5026357;28;20053;-66
2022/02/05 11:48:56;;;;;;;37.88;18.75;;;;;;;6.56;34.18;99169.47;5042413;28;20041;-66
2022/02/05 11:51:28;;;;;;;41.10;19.58;;;;;;;5.96;35.10;99162.19;5009277;28;20427;-66
2022/02/05 11:53:59;;;;;;;36.85;18.75;;;;;;;5.12;36.66;99118.47;4993578;28;20042;-66
2022/02/05 11:56:37;;;;;;;34.50;17.40;;;;;;;5.60;35.50;99170.72;5025888;28;20046;-66
2022/02/05 11:59:03;;;;;;;36.95;17.40;;;;;;;4.73;36.83;99154.78;5010625;28;20374;-66
2022/02/05 12:01:34;;;;;;;36.85;18.77;;;;;;;3.56;38.67;99157.91;4994086;28;20057;-66
2022/02/05 12:04:19;;;;;;;43.17;19.40;;;;;;;2.95;40.25;99165.25;4993208;28;20065;-66
2022/02/05 12:07:00;;;;;;;43.63;21.45;;;;;;;2.88;41.24;99173.72;4977374;28;20099;-66
2022/02/05 12:09:40;;;;;;;42.53;19.33;;;;;;;3.05;40.95;99167.13;5008925;28;20060;-66
2022/02/05 12:12:26;;;;;;;40.85;18.85;;;;;;;3.14;41.55;99158.44;5010238;28;20076;-67
2022/02/05 12:15:16;;;;;;;40.65;19.08;;;;;;;3.37;41.13;99161.16;5002889;28;20472;-67
2022/02/05 12:18:14;;;;;;;42.50;20.25;;;;;;;2.31;42.03;99165.53;5008223;28;20164;-67
2022/02/05 12:20:58;;;;;;;45.72;20.00;;;;;;;1.81;43.92;99132.69;5039507;28;20037;-67
2022/02/05 12:23:52;;;;;;;42.38;19.73;;;;;;;1.81;43.98;99154.00;4970846;28;20100;-67
2022/02/05 12:26:25;;;;;;;41.47;19.02;;;;;;;1.66;44.99;99162.09;5004258;28;20056;-70
2022/02/05 12:28:56;;;;;;;39.20;18.75;;;;;;;0.40;45.88;99066.03;5016832;28;20046;-71
2022/02/05 12:31:25;;;;;;;42.58;20.00;;;;;;;0.96;46.15;99158.97;4997225;28;20058;-67
2022/02/05 12:34:01;;;;;;;42.30;19.95;;;;;;;0.99;46.63;99156.09;4994432;28;20112;-69
2022/02/05 12:36:32;;;;;;;49.17;20.98;;;;;;;1.02;46.77;99150.53;5005380;28;20045;-69
2022/02/05 12:39:00;;;;;;;42.70;19.92;;;;;;;0.96;46.94;99145.66;5015628;28;20105;-68
2022/02/05 12:41:29;;;;;;;45.90;20.85;;;;;;;-0.21;49.28;99135.56;5019110;28;20099;-68
2022/02/05 12:43:57;;;;;;;45.25;21.13;;;;;;;0.00;48.62;99150.16;4987976;28;20073;-69
2022/02/05 12:46:27;;;;;;;46.65;19.15;;;;;;;-0.44;50.79;99143.13;5005437;28;20186;-66
2022/02/05 12:48:59;;;;;;;49.30;21.10;;;;;;;-0.63;51.19;99137.25;4998427;28;20050;-65
2022/02/05 12:51:27;;;;;;;51.50;21.55;;;;;;;-0.74;52.62;99138.75;4997291;28;20094;-68
2022/02/05 12:53:53;;;;;;;46.72;19.83;;;;;;;-0.01;50.50;99148.44;5007870;28;20109;-67
2022/02/05 12:56:22;;;;;;;49.63;19.55;;;;;;;-0.36;51.53;99132.06;4997016;28;20461;-66
2022/02/05 12:59:02;;;;;;;48.72;21.00;;;;;;;-0.51;52.24;99128.56;5020131;28;20081;-65
2022/02/05 13:01:33;;;;;;;45.08;18.92;;;;;;;-0.29;51.82;99113.00;4994252;28;20090;-65
2022/02/05 13:04:12;;;;;;;47.95;21.80;;;;;;;-1.16;52.60;99113.00;5011404;28;20047;-66
2022/02/05 13:06:38;;;;;;;48.00;19.80;;;;;;;-0.83;52.92;99120.75;5018807;28;20235;-69
2022/02/05 13:09:20;;;;;;;43.42;19.42;;;;;;;-1.18;52.94;99135.25;4996946;28;20459;-70
2022/02/05 13:11:51;;;;;;;44.00;21.00;;;;;;;-1.56;54.30;99127.75;4972216;28;20050;-69
2022/02/05 13:14:17;;;;;;;50.55;20.15;;;;;;;-1.39;54.02;99130.28;4983912;28;20037;-66
2022/02/05 13:16:44;;;;;;;47.10;21.08;;;;;;;-1.96;55.92;99135.28;4992158;28;20116;-66
2022/02/05 13:19:27;;;;;;;52.17;23.83;;;;;;;-2.57;57.18;99106.88;5007776;28;20644;-68
2022/02/05 13:36:13;;;;;;;57.88;22.25;;;;;;;-2.95;61.13;99094.75;5028519;28;20045;-66
2022/02/05 13:41:07;;;;;;;58.75;22.70;;;;;;;-3.54;63.05;99098.66;5006809;28;20074;-67
2022/02/05 13:43:44;;;;;;;59.00;23.60;;;;;;;-4.22;65.61;99103.72;5012465;28;20597;-68
2022/02/05 13:46:11;;;;;;;54.05;22.58;;;;;;;-4.25;66.30;99093.31;4984212;28;20064;-70
2022/02/05 13:48:37;;;;;;;59.60;26.50;;;;;;;-4.66;67.39;99098.72;5013739;28;20034;-69
2022/02/05 13:51:07;;;;;;;60.75;25.05;;;;;;;-4.78;68.34;99101.06;4982603;28;20077;-67
2022/02/05 13:53:33;;;;;;;56.80;22.90;;;;;;;-4.95;68.64;99093.91;5015970;28;20053;-66
2022/02/05 13:56:05;;;;;;;54.10;22.17;;;;;;;-5.07;69.81;99092.69;4974547;28;20049;-66
2022/02/05 13:58:38;;;;;;;63.25;26.63;;;;;;;-5.34;71.11;99097.34;4993406;28;20065;-65
2022/02/05 14:01:04;;;;;;;49.65;22.08;;;;;;;-5.42;72.00;99095.03;5005996;28;20128;-66
2022/02/05 14:03:32;;;;;;;57.03;22.42;;;;;;;-5.46;72.32;99095.25;4984477;28;20045;-66
2022/02/05 14:06:13;;;;;;;65.05;23.75;;;;;;;-5.52;73.36;99095.50;5019548;28;20042;-65
2022/02/05 14:08:47;;;;;;;55.20;22.30;;;;;;;-5.74;74.17;99083.25;4998943;28;20046;-66
2022/02/05 14:11:26;;;;;;;56.38;20.35;;;;;;;-5.82;74.47;99087.94;4990107;28;20060;-66
2022/02/05 14:14:02;;;;;;;53.42;19.08;;;;;;;-5.90;75.11;99084.78;4989481;28;20041;-66